createdAt,value
2022-10-21T00:00:54.779Z,100626.00
2022-10-21T00:03:21.710Z,100624.00
2022-10-21T00:05:48.464Z,100615.00
2022-10-21T00:08:15.309Z,100613.00
2022-10-21T00:10:41.779Z,100604.00
2022-10-21T00:13:08.334Z,100610.00
2022-10-21T00:15:35.107Z,100608.00
2022-10-21T00:18:01.560Z,100613.00
2022-10-21T00:20:27.998Z,100604.00
2022-10-21T00:22:54.443Z,100603.00
2022-10-21T00:25:20.855Z,100595.00
2022-10-21T00:27:47.319Z,100594.00
2022-10-21T00:30:13.834Z,100594.00
2022-10-21T00:32:40.441Z,100590.00
2022-10-21T00:35:07.197Z,100590.00
2022-10-21T00:37:33.576Z,100595.00
2022-10-21T00:40:00.004Z,100583.00
2022-10-21T00:42:35.188Z,100586.00
2022-10-21T00:45:11.579Z,100594.00
2022-10-21T00:47:50.674Z,100592.00
2022-10-21T00:50:41.672Z,100592.00
2022-10-21T00:53:10.777Z,100587.00
2022-10-21T00:55:39.939Z,100589.00
2022-10-21T00:58:07.355Z,100590.00
2022-10-21T01:00:33.885Z,100594.00
2022-10-21T01:03:00.337Z,100598.00
2022-10-21T01:05:26.933Z,100595.00
2022-10-21T01:07:53.546Z,100592.00
2022-10-21T01:10:20.063Z,100592.00
2022-10-21T01:13:12.966Z,100595.00
2022-10-21T01:15:46.579Z,100592.00
2022-10-21T01:18:15.997Z,100583.00
2022-10-21T01:20:42.369Z,100580.00
2022-10-21T01:23:27.046Z,100578.00
2022-10-21T01:25:53.509Z,100571.00
2022-10-21T01:28:43.204Z,100559.00
2022-10-21T01:31:16.481Z,100561.00
2022-10-21T01:33:45.665Z,100558.00
2022-10-21T01:36:30.721Z,100549.00
2022-10-21T01:39:15.861Z,100552.00
2022-10-21T01:41:52.818Z,100552.00
2022-10-21T01:44:19.174Z,100549.00
2022-10-21T01:46:50.278Z,100545.00
2022-10-21T01:49:26.958Z,100548.00
2022-10-21T01:51:54.190Z,100542.00
2022-10-21T01:54:26.917Z,100539.00
2022-10-21T01:56:53.833Z,100535.00
2022-10-21T01:59:21.036Z,100539.00
2022-10-21T02:01:49.052Z,100527.00
2022-10-21T02:04:16.097Z,100533.00
2022-10-21T02:06:42.608Z,100527.00
2022-10-21T02:09:09.102Z,100519.00
2022-10-21T02:11:37.610Z,100533.00
2022-10-21T02:14:24.316Z,100527.00
2022-10-21T02:16:51.994Z,100535.00
2022-10-21T02:19:19.562Z,100521.00
2022-10-21T02:21:47.558Z,100520.00
2022-10-21T02:24:23.669Z,100506.00
2022-10-21T02:26:50.292Z,100507.00
2022-10-21T02:29:21.133Z,100494.00
2022-10-21T02:31:57.140Z,100498.00
2022-10-21T02:34:30.399Z,100492.00
2022-10-21T02:37:05.861Z,100494.00
2022-10-21T02:39:34.549Z,100485.00
2022-10-21T02:42:02.253Z,100472.00
2022-10-21T02:44:28.752Z,100463.00
2022-10-21T02:46:55.283Z,100463.00
2022-10-21T02:49:21.712Z,100460.00
2022-10-21T02:51:48.116Z,100459.00
2022-10-21T02:54:14.560Z,100460.00
2022-10-21T02:56:41.000Z,100458.00
2022-10-21T02:59:07.379Z,100453.00
2022-10-21T03:01:33.863Z,100458.00
2022-10-21T03:04:00.321Z,100461.00
2022-10-21T03:06:26.739Z,100471.00
2022-10-21T03:08:53.287Z,100476.00
2022-10-21T03:11:19.887Z,100468.00
2022-10-21T03:13:46.314Z,100472.00
2022-10-21T03:16:12.742Z,100472.00
2022-10-21T03:18:39.254Z,100473.00
2022-10-21T03:21:05.750Z,100465.00
2022-10-21T03:23:32.173Z,100465.00
2022-10-21T03:25:58.556Z,100467.00
2022-10-21T03:28:25.051Z,100457.00
2022-10-21T03:30:51.438Z,100448.00
2022-10-21T03:33:17.864Z,100450.00
2022-10-21T03:35:44.366Z,100455.00
2022-10-21T03:38:10.832Z,100460.00
2022-10-21T03:40:37.271Z,100470.00
2022-10-21T03:43:03.702Z,100469.00
2022-10-21T03:45:30.154Z,100472.00
2022-10-21T03:47:56.592Z,100466.00
2022-10-21T03:50:26.114Z,100473.00
2022-10-21T03:52:53.476Z,100478.00
2022-10-21T03:55:21.033Z,100479.00
2022-10-21T03:57:47.924Z,100471.00
2022-10-21T04:00:14.718Z,100464.00
2022-10-21T04:02:41.297Z,100452.00
2022-10-21T04:05:08.098Z,100456.00
2022-10-21T04:07:34.515Z,100449.00
2022-10-21T04:10:00.963Z,100443.00
2022-10-21T04:12:27.414Z,100442.00
2022-10-21T04:14:53.818Z,100449.00
2022-10-21T04:17:20.311Z,100457.00
2022-10-21T04:19:46.723Z,100466.00
2022-10-21T04:22:13.184Z,100468.00
2022-10-21T04:24:39.624Z,100463.00
2022-10-21T04:27:06.114Z,100471.00
2022-10-21T04:29:32.596Z,100471.00
2022-10-21T04:31:59.062Z,100467.00
2022-10-21T04:34:25.509Z,100457.00
2022-10-21T04:36:51.924Z,100460.00
2022-10-21T04:39:18.465Z,100466.00
2022-10-21T04:41:45.838Z,100463.00
2022-10-21T04:44:12.302Z,100459.00
2022-10-21T04:46:38.725Z,100467.00
2022-10-21T04:49:05.176Z,100458.00
2022-10-21T04:54:02.963Z,100461.00
2022-10-21T04:56:29.438Z,100454.00
2022-10-21T04:58:55.860Z,100449.00
2022-10-21T05:01:22.389Z,100449.00
2022-10-21T05:03:48.832Z,100457.00
2022-10-21T05:06:15.260Z,100459.00
2022-10-21T05:08:41.855Z,100447.00
2022-10-21T05:11:08.278Z,100453.00
2022-10-21T05:13:34.748Z,100449.00
2022-10-21T05:16:02.097Z,100440.00
2022-10-21T05:18:29.162Z,100440.00
2022-10-21T05:20:55.963Z,100430.00
2022-10-21T05:23:22.843Z,100434.00
2022-10-21T05:25:51.609Z,100439.00
2022-10-21T05:28:18.524Z,100437.00
2022-10-21T05:30:45.233Z,100438.00
2022-10-21T05:33:11.660Z,100435.00
2022-10-21T05:35:38.224Z,100419.00
2022-10-21T05:38:04.824Z,100417.00
2022-10-21T05:40:31.824Z,100420.00
2022-10-21T05:42:58.255Z,100419.00
2022-10-21T05:45:24.751Z,100420.00
2022-10-21T05:47:51.231Z,100412.00
2022-10-21T05:50:17.665Z,100415.00
2022-10-21T05:52:44.124Z,100420.00
2022-10-21T05:55:10.661Z,100428.00
2022-10-21T05:57:38.079Z,100427.00
2022-10-21T06:00:05.431Z,100422.00
2022-10-21T06:02:31.856Z,100417.00
2022-10-21T06:04:58.276Z,100430.00
2022-10-21T06:07:24.677Z,100430.00
2022-10-21T06:09:51.105Z,100432.00
2022-10-21T06:12:17.555Z,100443.00
2022-10-21T06:14:44.004Z,100442.00
2022-10-21T06:17:10.436Z,100449.00
2022-10-21T06:19:36.846Z,100445.00
2022-10-21T06:22:03.351Z,100442.00
2022-10-21T06:24:29.990Z,100439.00
2022-10-21T06:26:56.421Z,100437.00
2022-10-21T06:29:23.569Z,100437.00
2022-10-21T06:31:50.010Z,100438.00
2022-10-21T06:36:47.913Z,100451.00
2022-10-21T06:39:14.336Z,100449.00
2022-10-21T06:41:40.751Z,100452.00
2022-10-21T06:44:07.202Z,100462.00
2022-10-21T06:46:33.663Z,100463.00
2022-10-21T06:49:00.114Z,100475.00
2022-10-21T06:51:26.532Z,100478.00
2022-10-21T06:53:54.538Z,100485.00
2022-10-21T06:56:21.415Z,100481.00
2022-10-21T06:58:49.145Z,100489.00
2022-10-21T07:01:28.014Z,100503.00
2022-10-21T07:04:00.779Z,100512.00
2022-10-21T07:06:27.397Z,100514.00
2022-10-21T07:08:58.797Z,100519.00
2022-10-21T07:11:25.872Z,100516.00
2022-10-21T07:13:53.488Z,100499.00
2022-10-21T07:16:19.914Z,100504.00
2022-10-21T07:18:46.462Z,100515.00
2022-10-21T07:21:15.595Z,100510.00
2022-10-21T07:23:42.095Z,100507.00
2022-10-21T07:26:08.764Z,100512.00
2022-10-21T07:28:35.425Z,100511.00
2022-10-21T07:31:01.913Z,100506.00
2022-10-21T07:33:28.329Z,100508.00
2022-10-21T07:36:08.144Z,100512.00
2022-10-21T07:38:35.006Z,100513.00
2022-10-21T07:41:01.527Z,100520.00
2022-10-21T07:43:27.976Z,100509.00
2022-10-21T07:45:54.375Z,100511.00
2022-10-21T07:48:21.057Z,100513.00
2022-10-21T07:50:47.492Z,100518.00
2022-10-21T07:53:14.889Z,100517.00
2022-10-21T07:55:41.588Z,100527.00
2022-10-21T07:58:08.025Z,100521.00
2022-10-21T08:00:34.514Z,100533.00
2022-10-21T08:03:01.153Z,100521.00
2022-10-21T08:05:27.622Z,100517.00
2022-10-21T08:07:54.151Z,100526.00
2022-10-21T08:10:20.630Z,100521.00
2022-10-21T08:12:47.146Z,100517.00
2022-10-21T08:15:13.568Z,100524.00
2022-10-21T08:17:39.983Z,100528.00
2022-10-21T08:20:06.785Z,100536.00
2022-10-21T08:22:33.177Z,100534.00
2022-10-21T08:24:59.605Z,100547.00
2022-10-21T08:27:26.042Z,100547.00
2022-10-21T08:29:52.508Z,100545.00
2022-10-21T08:32:19.005Z,100543.00
2022-10-21T08:34:45.465Z,100545.00
2022-10-21T08:37:11.889Z,100552.00
2022-10-21T08:39:38.307Z,100560.00
2022-10-21T08:42:17.622Z,100553.00
2022-10-21T08:44:44.019Z,100552.00
2022-10-21T08:47:10.451Z,100556.00
2022-10-21T08:49:42.519Z,100554.00
2022-10-21T08:52:17.207Z,100553.00
2022-10-21T08:54:55.936Z,100551.00
2022-10-21T08:57:22.757Z,100547.00
2022-10-21T08:59:49.594Z,100547.00
2022-10-21T09:02:22.045Z,100552.00
2022-10-21T09:05:07.270Z,100551.00
2022-10-21T09:07:41.456Z,100543.00
2022-10-21T09:10:28.386Z,100555.00
2022-10-21T09:12:54.867Z,100562.00
2022-10-21T09:15:30.986Z,100559.00
2022-10-21T09:18:12.283Z,100552.00
2022-10-21T09:20:44.512Z,100552.00
2022-10-21T09:23:20.102Z,100547.00
2022-10-21T09:25:53.628Z,100553.00
2022-10-21T09:28:20.054Z,100546.00
2022-10-21T09:30:46.774Z,100554.00
2022-10-21T09:33:24.532Z,100557.00
2022-10-21T09:35:53.922Z,100552.00
2022-10-21T09:38:22.236Z,100544.00
2022-10-21T09:40:50.228Z,100546.00
2022-10-21T09:43:22.401Z,100539.00
2022-10-21T09:45:49.132Z,100543.00
2022-10-21T09:48:18.969Z,100537.00
2022-10-21T09:50:46.262Z,100541.00
2022-10-21T09:53:21.341Z,100537.00
2022-10-21T09:55:52.166Z,100543.00
2022-10-21T09:58:27.306Z,100553.00
2022-10-21T10:00:54.424Z,100557.00
2022-10-21T10:03:34.575Z,100555.00
2022-10-21T10:06:01.575Z,100559.00
2022-10-21T10:08:38.682Z,100557.00
2022-10-21T10:11:16.967Z,100566.00
2022-10-21T10:13:45.127Z,100567.00
2022-10-21T10:16:13.175Z,100564.00
2022-10-21T10:18:39.675Z,100564.00
2022-10-21T10:21:09.467Z,100561.00
2022-10-21T10:23:45.960Z,100567.00
2022-10-21T10:26:18.058Z,100564.00
2022-10-21T10:28:48.430Z,100563.00
2022-10-21T10:31:22.401Z,100576.00
2022-10-21T10:33:57.973Z,100577.00
2022-10-21T10:36:33.668Z,100576.00
2022-10-21T10:39:00.938Z,100588.00
2022-10-21T10:41:38.250Z,100581.00
2022-10-21T10:44:12.568Z,100577.00
2022-10-21T10:46:39.507Z,100583.00
2022-10-21T10:49:15.026Z,100568.00
2022-10-21T10:51:42.600Z,100573.00
2022-10-21T10:54:15.119Z,100571.00
2022-10-21T10:56:44.910Z,100564.00
2022-10-21T10:59:15.597Z,100568.00
2022-10-21T11:01:49.458Z,100568.00
2022-10-21T11:04:23.934Z,100570.00
2022-10-21T11:06:55.095Z,100581.00
2022-10-21T11:09:25.089Z,100569.00
2022-10-21T11:11:55.948Z,100560.00
2022-10-21T11:14:22.859Z,100558.00
2022-10-21T11:16:59.439Z,100567.00
2022-10-21T11:19:30.169Z,100556.00
2022-10-21T11:22:06.262Z,100550.00
2022-10-21T11:24:51.240Z,100555.00
2022-10-21T11:27:36.609Z,100562.00
2022-10-21T11:30:20.356Z,100554.00
2022-10-21T11:33:04.364Z,100565.00
2022-10-21T11:35:46.366Z,100572.00
2022-10-21T11:38:28.083Z,100571.00
2022-10-21T11:41:02.378Z,100568.00
2022-10-21T11:43:29.198Z,100567.00
2022-10-21T11:46:01.300Z,100560.00
2022-10-21T11:48:45.914Z,100559.00
2022-10-21T11:51:26.369Z,100553.00
2022-10-21T11:54:13.088Z,100569.00
2022-10-21T11:56:43.220Z,100563.00
2022-10-21T11:59:18.945Z,100560.00
2022-10-21T12:01:54.215Z,100565.00
2022-10-21T12:04:40.760Z,100560.00
2022-10-21T12:07:22.541Z,100570.00
2022-10-21T12:09:54.149Z,100561.00
2022-10-21T12:12:26.893Z,100561.00
2022-10-21T12:14:56.244Z,100553.00
2022-10-21T12:17:23.509Z,100547.00
2022-10-21T12:20:00.467Z,100552.00
2022-10-21T12:22:28.214Z,100548.00
2022-10-21T12:24:57.792Z,100538.00
2022-10-21T12:27:27.281Z,100537.00
2022-10-21T12:30:13.148Z,100538.00
2022-10-21T12:32:39.554Z,100534.00
2022-10-21T12:35:06.132Z,100531.00
2022-10-21T12:37:43.016Z,100525.00
2022-10-21T12:40:14.311Z,100530.00
2022-10-21T12:42:47.966Z,100534.00
2022-10-21T12:45:25.842Z,100534.00
2022-10-21T12:47:52.640Z,100529.00
2022-10-21T12:50:23.567Z,100530.00
2022-10-21T12:53:22.313Z,100522.00
2022-10-21T12:55:51.194Z,100526.00
2022-10-21T12:58:26.696Z,100524.00
2022-10-21T13:00:54.387Z,100532.00
2022-10-21T13:03:22.189Z,100523.00
2022-10-21T13:05:50.128Z,100537.00
2022-10-21T13:08:19.315Z,100527.00
2022-10-21T13:11:07.168Z,100529.00
2022-10-21T13:13:40.753Z,100530.00
2022-10-21T13:16:19.594Z,100533.00
2022-10-21T13:19:02.562Z,100531.00
2022-10-21T13:21:28.920Z,100535.00
2022-10-21T13:23:56.976Z,100530.00
2022-10-21T13:26:27.519Z,100535.00
2022-10-21T13:29:02.416Z,100529.00
2022-10-21T13:31:29.092Z,100532.00
2022-10-21T13:33:55.840Z,100530.00
2022-10-21T13:36:43.035Z,100532.00
2022-10-21T13:39:22.860Z,100536.00
2022-10-21T13:41:56.845Z,100531.00
2022-10-21T13:44:27.356Z,100535.00
2022-10-21T13:46:53.985Z,100536.00
2022-10-21T13:49:26.357Z,100526.00
2022-10-21T13:51:53.023Z,100529.00
2022-10-21T13:54:19.946Z,100532.00
2022-10-21T13:56:46.623Z,100536.00
2022-10-21T13:59:25.180Z,100529.00
2022-10-21T14:01:52.916Z,100528.00
2022-10-21T14:04:24.442Z,100530.00
2022-10-21T14:06:57.020Z,100537.00
2022-10-21T14:09:28.055Z,100536.00
2022-10-21T14:12:00.487Z,100531.00
2022-10-21T14:14:28.012Z,100538.00
2022-10-21T14:17:08.005Z,100540.00
2022-10-21T14:19:37.494Z,100537.00
2022-10-21T14:22:04.844Z,100539.00
2022-10-21T14:24:44.378Z,100557.00
2022-10-21T14:27:21.036Z,100544.00
2022-10-21T14:29:47.887Z,100557.00
2022-10-21T14:32:15.478Z,100544.00
2022-10-21T14:34:59.686Z,100544.00
2022-10-21T14:37:26.120Z,100542.00
2022-10-21T14:39:52.700Z,100546.00
2022-10-21T14:42:23.418Z,100548.00
2022-10-21T14:44:51.488Z,100550.00
2022-10-21T14:47:19.210Z,100549.00
2022-10-21T14:49:47.415Z,100550.00
2022-10-21T14:52:24.473Z,100548.00
2022-10-21T14:54:58.629Z,100548.00
2022-10-21T14:57:43.733Z,100552.00
2022-10-21T15:00:29.815Z,100542.00
2022-10-21T15:02:57.599Z,100545.00
2022-10-21T15:05:26.880Z,100544.00
2022-10-21T15:08:13.269Z,100537.00
2022-10-21T15:10:39.718Z,100536.00
2022-10-21T15:13:15.124Z,100534.00
2022-10-21T15:15:43.229Z,100543.00
2022-10-21T15:18:15.264Z,100542.00
2022-10-21T15:20:52.590Z,100547.00
2022-10-21T15:23:20.362Z,100545.00
2022-10-21T15:25:47.042Z,100551.00
2022-10-21T15:28:18.041Z,100550.00
2022-10-21T15:30:45.009Z,100553.00
2022-10-21T15:33:12.343Z,100547.00
2022-10-21T15:35:38.817Z,100549.00
2022-10-21T15:38:05.233Z,100551.00
2022-10-21T15:40:32.671Z,100551.00
2022-10-21T15:42:59.175Z,100552.00
2022-10-21T15:45:25.599Z,100559.00
2022-10-21T15:47:53.061Z,100552.00
2022-10-21T15:50:20.750Z,100560.00
2022-10-21T15:52:47.419Z,100560.00
2022-10-21T15:55:14.074Z,100560.00
2022-10-21T15:57:42.262Z,100560.00
2022-10-21T16:00:19.457Z,100559.00
2022-10-21T16:02:46.658Z,100558.00
2022-10-21T16:05:13.388Z,100560.00
2022-10-21T16:07:40.484Z,100559.00
2022-10-21T16:10:21.915Z,100550.00
2022-10-21T16:12:48.951Z,100555.00
2022-10-21T16:15:16.197Z,100565.00
2022-10-21T16:17:43.973Z,100570.00
2022-10-21T16:20:21.230Z,100571.00
2022-10-21T16:22:47.717Z,100570.00
2022-10-21T16:25:14.562Z,100577.00
2022-10-21T16:27:55.713Z,100571.00
2022-10-21T16:30:25.967Z,100580.00
2022-10-21T16:32:52.385Z,100580.00
2022-10-21T16:35:19.805Z,100587.00
2022-10-21T16:37:46.508Z,100587.00
2022-10-21T16:40:27.069Z,100591.00
2022-10-21T16:42:54.336Z,100594.00
2022-10-21T16:45:21.967Z,100591.00
2022-10-21T16:47:54.046Z,100587.00
2022-10-21T16:50:22.558Z,100592.00
2022-10-21T16:52:49.051Z,100596.00
2022-10-21T16:55:16.220Z,100594.00
2022-10-21T16:57:42.956Z,100595.00
2022-10-21T17:00:10.115Z,100591.00
2022-10-21T17:02:40.286Z,100597.00
2022-10-21T17:05:08.057Z,100598.00
2022-10-21T17:07:34.543Z,100608.00
2022-10-21T17:10:02.039Z,100599.00
2022-10-21T17:12:28.585Z,100607.00
2022-10-21T17:14:55.140Z,100604.00
2022-10-21T17:17:22.337Z,100610.00
2022-10-21T17:19:48.813Z,100615.00
2022-10-21T17:22:17.058Z,100611.00
2022-10-21T17:24:43.929Z,100615.00
2022-10-21T17:27:10.371Z,100604.00
2022-10-21T17:29:36.896Z,100618.00
2022-10-21T17:32:03.795Z,100613.00
2022-10-21T17:34:36.700Z,100624.00
2022-10-21T17:37:03.376Z,100621.00
2022-10-21T17:39:29.798Z,100629.00
2022-10-21T17:41:56.296Z,100625.00
2022-10-21T17:44:22.748Z,100635.00
2022-10-21T17:46:51.874Z,100630.00
2022-10-21T17:49:18.334Z,100640.00
2022-10-21T17:51:44.872Z,100629.00
2022-10-21T17:54:11.362Z,100642.00
2022-10-21T17:56:37.774Z,100639.00
2022-10-21T17:59:04.336Z,100636.00
2022-10-21T18:01:30.856Z,100632.00
2022-10-21T18:03:58.069Z,100636.00
2022-10-21T18:06:24.548Z,100637.00
2022-10-21T18:08:51.001Z,100640.00
2022-10-21T18:11:18.530Z,100639.00
2022-10-21T18:13:45.108Z,100638.00
2022-10-21T18:16:13.242Z,100629.00
2022-10-21T18:18:40.057Z,100632.00
2022-10-21T18:21:07.810Z,100631.00
2022-10-21T18:23:36.145Z,100629.00
2022-10-21T18:26:06.789Z,100637.00
2022-10-21T18:28:34.338Z,100633.00
2022-10-21T18:31:01.180Z,100636.00
2022-10-21T18:33:27.822Z,100638.00
2022-10-21T18:35:54.424Z,100631.00
2022-10-21T18:38:20.877Z,100627.00
2022-10-21T18:40:56.636Z,100629.00
2022-10-21T18:43:28.861Z,100632.00
2022-10-21T18:45:55.283Z,100633.00
2022-10-21T18:48:21.712Z,100635.00
2022-10-21T18:50:48.117Z,100629.00
2022-10-21T18:53:14.715Z,100625.00
2022-10-21T18:55:44.006Z,100624.00
2022-10-21T18:58:10.544Z,100627.00
2022-10-21T19:00:37.091Z,100627.00
2022-10-21T19:03:03.842Z,100616.00
2022-10-21T19:05:30.326Z,100619.00
2022-10-21T19:07:56.763Z,100617.00
2022-10-21T19:10:23.232Z,100618.00
2022-10-21T19:12:51.006Z,100618.00
2022-10-21T19:15:18.531Z,100615.00
2022-10-21T19:17:46.844Z,100613.00
2022-10-21T19:20:14.724Z,100608.00
2022-10-21T19:22:41.196Z,100611.00
2022-10-21T19:25:07.894Z,100622.00
2022-10-21T19:27:34.357Z,100614.00
2022-10-21T19:30:00.907Z,100623.00
2022-10-21T19:32:27.347Z,100627.00
2022-10-21T19:34:53.763Z,100628.00
2022-10-21T19:37:20.196Z,100625.00
2022-10-21T19:39:46.653Z,100636.00
2022-10-21T19:42:13.056Z,100634.00
2022-10-21T19:44:39.577Z,100632.00
2022-10-21T19:47:06.028Z,100640.00
2022-10-21T19:49:33.174Z,100638.00
2022-10-21T19:51:59.791Z,100639.00
2022-10-21T19:54:26.223Z,100640.00
2022-10-21T19:56:52.756Z,100644.00
2022-10-21T19:59:19.202Z,100649.00
2022-10-21T20:01:45.728Z,100654.00
2022-10-21T20:04:12.790Z,100645.00
2022-10-21T20:06:39.269Z,100661.00
2022-10-21T20:09:07.654Z,100645.00
2022-10-21T20:11:34.229Z,100658.00
2022-10-21T20:14:00.861Z,100654.00
2022-10-21T20:16:28.805Z,100651.00
2022-10-21T20:18:55.595Z,100653.00
2022-10-21T20:21:23.074Z,100652.00
2022-10-21T20:23:49.992Z,100644.00
2022-10-21T20:26:16.707Z,100648.00
2022-10-21T20:28:43.168Z,100655.00
2022-10-21T20:31:11.095Z,100655.00
2022-10-21T20:33:39.573Z,100655.00
2022-10-21T20:36:07.173Z,100659.00
2022-10-21T20:38:33.657Z,100656.00
2022-10-21T20:41:02.708Z,100665.00
2022-10-21T20:43:29.747Z,100660.00
2022-10-21T20:45:56.167Z,100661.00
2022-10-21T20:48:22.614Z,100664.00
2022-10-21T20:50:49.049Z,100667.00
2022-10-21T20:53:15.490Z,100669.00
2022-10-21T20:55:42.888Z,100667.00
2022-10-21T20:58:09.499Z,100670.00
2022-10-21T21:00:36.929Z,100661.00
2022-10-21T21:03:03.429Z,100667.00
2022-10-21T21:05:29.851Z,100665.00
2022-10-21T21:07:56.297Z,100671.00
2022-10-21T21:10:23.037Z,100664.00
2022-10-21T21:12:49.556Z,100669.00
2022-10-21T21:15:15.968Z,100667.00
2022-10-21T21:17:42.429Z,100668.00
2022-10-21T21:20:09.203Z,100668.00
2022-10-21T21:22:36.487Z,100672.00
2022-10-21T21:25:03.109Z,100669.00
2022-10-21T21:27:29.554Z,100675.00
2022-10-21T21:29:56.004Z,100677.00
2022-10-21T21:32:22.462Z,100678.00
2022-10-21T21:34:54.450Z,100670.00
2022-10-21T21:37:24.637Z,100675.00
2022-10-21T21:39:51.446Z,100669.00
2022-10-21T21:42:17.939Z,100676.00
2022-10-21T21:44:44.351Z,100671.00
2022-10-21T21:47:10.783Z,100667.00
2022-10-21T21:49:37.441Z,100663.00
2022-10-21T21:52:03.877Z,100661.00
2022-10-21T21:54:30.283Z,100664.00
2022-10-21T21:57:26.408Z,100665.00
2022-10-21T21:59:44.976Z,100659.00
2022-10-21T22:02:11.395Z,100659.00
2022-10-21T22:04:39.315Z,100655.00
2022-10-21T22:07:05.756Z,100654.00
2022-10-21T22:09:32.270Z,100647.00
2022-10-21T22:11:58.699Z,100642.00
2022-10-21T22:14:25.115Z,100644.00
2022-10-21T22:16:51.544Z,100634.00
2022-10-21T22:19:17.998Z,100635.00
2022-10-21T22:21:44.418Z,100625.00
2022-10-21T22:24:10.872Z,100631.00
2022-10-21T22:26:37.291Z,100625.00
2022-10-21T22:29:03.707Z,100636.00
2022-10-21T22:31:30.832Z,100634.00
2022-10-21T22:33:57.782Z,100621.00
2022-10-21T22:36:24.282Z,100628.00
2022-10-21T22:38:50.675Z,100623.00
2022-10-21T22:41:17.113Z,100627.00
2022-10-21T22:43:43.542Z,100629.00
2022-10-21T22:46:22.248Z,100634.00
2022-10-21T22:48:56.568Z,100639.00
2022-10-21T22:51:23.054Z,100630.00
2022-10-21T22:53:53.595Z,100632.00
2022-10-21T22:56:22.932Z,100630.00
2022-10-21T22:58:49.370Z,100633.00
2022-10-21T23:01:15.814Z,100632.00
2022-10-21T23:03:42.240Z,100622.00
2022-10-21T23:06:08.698Z,100632.00
2022-10-21T23:08:35.176Z,100633.00
2022-10-21T23:11:01.685Z,100629.00
2022-10-21T23:13:28.206Z,100633.00
2022-10-21T23:15:54.635Z,100633.00
2022-10-21T23:18:21.088Z,100631.00
2022-10-21T23:20:47.591Z,100635.00
2022-10-21T23:23:14.039Z,100637.00
2022-10-21T23:25:40.454Z,100631.00
2022-10-21T23:28:09.800Z,100638.00
2022-10-21T23:30:36.895Z,100643.00
2022-10-21T23:33:03.810Z,100636.00
2022-10-21T23:35:30.247Z,100643.00
2022-10-21T23:37:56.750Z,100650.00
2022-10-21T23:40:23.194Z,100637.00
2022-10-21T23:42:49.582Z,100639.00
2022-10-21T23:45:16.032Z,100653.00
2022-10-21T23:47:42.855Z,100656.00
2022-10-21T23:50:10.174Z,100658.00
2022-10-21T23:52:37.450Z,100654.00
2022-10-21T23:55:07.316Z,100660.00
2022-10-21T23:57:34.082Z,100666.00
